sensor_id;sensor_type;location;lat;lon;timestamp;pressure;altitude;pressure_sealevel;temperature;humidity
65997;BME280;52765;52.258;21.052;2023-04-04T00:00:29;101528.88;;;0.78;70.65
65997;BME280;52765;52.258;21.052;2023-04-04T00:02:54;101524.84;;;0.69;70.53
65997;BME280;52765;52.258;21.052;2023-04-04T00:05:19;101517.81;;;0.68;70.99
65997;BME280;52765;52.258;21.052;2023-04-04T00:07:46;101517.06;;;0.64;70.78
65997;BME280;52765;52.258;21.052;2023-04-04T00:10:11;101519.00;;;0.61;70.94
65997;BME280;52765;52.258;21.052;2023-04-04T00:12:37;101519.75;;;0.42;72.28
65997;BME280;52765;52.258;21.052;2023-04-04T00:15:06;101515.09;;;0.27;73.19
65997;BME280;52765;52.258;21.052;2023-04-04T00:17:32;101497.19;;;0.10;74.16
65997;BME280;52765;52.258;21.052;2023-04-04T00:19:57;101503.38;;;0.10;75.14
65997;BME280;52765;52.258;21.052;2023-04-04T00:22:23;101502.56;;;0.08;75.48
65997;BME280;52765;52.258;21.052;2023-04-04T00:24:48;101506.88;;;0.11;76.21
65997;BME280;52765;52.258;21.052;2023-04-04T00:27:14;101497.09;;;0.13;76.62
65997;BME280;52765;52.258;21.052;2023-04-04T00:29:44;101509.09;;;0.22;75.88
65997;BME280;52765;52.258;21.052;2023-04-04T00:32:10;101498.44;;;0.23;75.37
65997;BME280;52765;52.258;21.052;2023-04-04T00:34:36;101507.38;;;0.21;76.01
65997;BME280;52765;52.258;21.052;2023-04-04T00:37:01;101510.66;;;0.27;76.20
65997;BME280;52765;52.258;21.052;2023-04-04T00:39:27;101502.38;;;0.35;74.81
65997;BME280;52765;52.258;21.052;2023-04-04T00:41:52;101504.72;;;0.21;76.22
65997;BME280;52765;52.258;21.052;2023-04-04T00:44:18;101509.03;;;0.23;75.83
65997;BME280;52765;52.258;21.052;2023-04-04T00:46:43;101498.75;;;0.15;76.01
65997;BME280;52765;52.258;21.052;2023-04-04T00:49:09;101492.06;;;0.07;76.54
65997;BME280;52765;52.258;21.052;2023-04-04T00:51:35;101491.16;;;0.06;77.23
65997;BME280;52765;52.258;21.052;2023-04-04T00:54:02;101481.75;;;-0.01;78.26
65997;BME280;52765;52.258;21.052;2023-04-04T00:56:29;101486.59;;;-0.12;78.46
65997;BME280;52765;52.258;21.052;2023-04-04T00:58:56;101468.28;;;-0.41;79.49
65997;BME280;52765;52.258;21.052;2023-04-04T01:01:22;101477.84;;;-0.36;80.31
65997;BME280;52765;52.258;21.052;2023-04-04T01:03:52;101469.28;;;-0.43;80.47
65997;BME280;52765;52.258;21.052;2023-04-04T01:06:18;101472.78;;;-0.43;81.10
65997;BME280;52765;52.258;21.052;2023-04-04T01:08:44;101457.28;;;-0.53;81.08
65997;BME280;52765;52.258;21.052;2023-04-04T01:11:11;101466.91;;;-0.51;81.58
65997;BME280;52765;52.258;21.052;2023-04-04T01:13:37;101460.75;;;-0.51;81.63
65997;BME280;52765;52.258;21.052;2023-04-04T01:16:02;101465.00;;;-0.47;82.06
65997;BME280;52765;52.258;21.052;2023-04-04T01:18:29;101449.00;;;-0.44;81.93
65997;BME280;52765;52.258;21.052;2023-04-04T01:20:59;101450.59;;;-0.40;82.05
65997;BME280;52765;52.258;21.052;2023-04-04T01:23:59;101447.16;;;-0.42;82.68
65997;BME280;52765;52.258;21.052;2023-04-04T01:26:26;101450.03;;;-0.48;82.18
65997;BME280;52765;52.258;21.052;2023-04-04T01:29:01;101442.97;;;-0.48;83.67
65997;BME280;52765;52.258;21.052;2023-04-04T01:31:35;101449.56;;;-0.36;82.26
65997;BME280;52765;52.258;21.052;2023-04-04T01:34:23;101441.63;;;-0.36;81.16
65997;BME280;52765;52.258;21.052;2023-04-04T01:39:48;101441.06;;;-0.44;82.88
65997;BME280;52765;52.258;21.052;2023-04-04T01:42:15;101440.31;;;-0.48;83.17
65997;BME280;52765;52.258;21.052;2023-04-04T01:44:41;101445.84;;;-0.54;82.94
65997;BME280;52765;52.258;21.052;2023-04-04T01:47:07;101446.00;;;-0.59;83.80
65997;BME280;52765;52.258;21.052;2023-04-04T01:49:35;101453.38;;;-0.67;84.25
65997;BME280;52765;52.258;21.052;2023-04-04T01:52:02;101446.44;;;-0.69;83.77
65997;BME280;52765;52.258;21.052;2023-04-04T01:54:27;101448.38;;;-0.75;84.62
65997;BME280;52765;52.258;21.052;2023-04-04T01:56:53;101449.72;;;-0.86;85.73
65997;BME280;52765;52.258;21.052;2023-04-04T01:59:21;101450.69;;;-0.89;85.91
65997;BME280;52765;52.258;21.052;2023-04-04T02:01:46;101443.53;;;-0.87;85.94
65997;BME280;52765;52.258;21.052;2023-04-04T02:04:11;101445.16;;;-0.83;84.87
65997;BME280;52765;52.258;21.052;2023-04-04T02:06:38;101450.09;;;-0.97;86.75
65997;BME280;52765;52.258;21.052;2023-04-04T02:09:04;101449.41;;;-1.02;86.85
65997;BME280;52765;52.258;21.052;2023-04-04T02:11:30;101459.50;;;-1.14;88.44
65997;BME280;52765;52.258;21.052;2023-04-04T02:13:56;101457.59;;;-1.10;88.24
65997;BME280;52765;52.258;21.052;2023-04-04T02:16:21;101453.09;;;-1.06;88.55
65997;BME280;52765;52.258;21.052;2023-04-04T02:18:47;101456.19;;;-0.95;87.62
65997;BME280;52765;52.258;21.052;2023-04-04T02:21:13;101438.66;;;-0.98;87.66
65997;BME280;52765;52.258;21.052;2023-04-04T02:23:38;101448.19;;;-0.94;87.01
65997;BME280;52765;52.258;21.052;2023-04-04T02:26:04;101443.09;;;-0.98;87.44
65997;BME280;52765;52.258;21.052;2023-04-04T02:28:29;101449.28;;;-0.99;87.38
65997;BME280;52765;52.258;21.052;2023-04-04T02:30:59;101450.16;;;-0.99;88.60
65997;BME280;52765;52.258;21.052;2023-04-04T02:33:25;101451.78;;;-0.95;87.66
65997;BME280;52765;52.258;21.052;2023-04-04T02:35:51;101454.53;;;-0.98;88.04
65997;BME280;52765;52.258;21.052;2023-04-04T02:38:16;101460.63;;;-0.96;87.87
65997;BME280;52765;52.258;21.052;2023-04-04T02:40:45;101447.59;;;-1.02;88.20
65997;BME280;52765;52.258;21.052;2023-04-04T02:43:10;101453.13;;;-1.08;87.94
65997;BME280;52765;52.258;21.052;2023-04-04T02:45:36;101454.41;;;-1.18;89.21
65997;BME280;52765;52.258;21.052;2023-04-04T02:48:01;101452.38;;;-1.12;89.60
65997;BME280;52765;52.258;21.052;2023-04-04T02:50:27;101450.59;;;-1.11;88.73
65997;BME280;52765;52.258;21.052;2023-04-04T02:52:58;101459.13;;;-1.03;89.25
65997;BME280;52765;52.258;21.052;2023-04-04T02:55:24;101458.59;;;-1.13;89.04
65997;BME280;52765;52.258;21.052;2023-04-04T02:57:50;101446.50;;;-1.20;89.26
65997;BME280;52765;52.258;21.052;2023-04-04T03:00:16;101462.47;;;-1.23;90.15
65997;BME280;52765;52.258;21.052;2023-04-04T03:02:42;101457.19;;;-1.23;90.14
65997;BME280;52765;52.258;21.052;2023-04-04T03:05:08;101455.59;;;-1.28;90.24
65997;BME280;52765;52.258;21.052;2023-04-04T03:07:33;101449.47;;;-1.29;89.90
65997;BME280;52765;52.258;21.052;2023-04-04T03:09:59;101457.34;;;-1.27;90.19
65997;BME280;52765;52.258;21.052;2023-04-04T03:12:24;101446.31;;;-1.40;91.08
65997;BME280;52765;52.258;21.052;2023-04-04T03:14:51;101456.09;;;-1.42;91.03
65997;BME280;52765;52.258;21.052;2023-04-04T03:17:17;101457.88;;;-1.43;91.54
65997;BME280;52765;52.258;21.052;2023-04-04T03:19:42;101455.28;;;-1.44;91.64
65997;BME280;52765;52.258;21.052;2023-04-04T03:22:08;101451.94;;;-1.50;91.08
65997;BME280;52765;52.258;21.052;2023-04-04T03:24:34;101449.06;;;-1.43;91.26
65997;BME280;52765;52.258;21.052;2023-04-04T03:27:00;101441.53;;;-1.54;92.11
65997;BME280;52765;52.258;21.052;2023-04-04T03:29:26;101448.47;;;-1.52;92.38
65997;BME280;52765;52.258;21.052;2023-04-04T03:31:51;101439.78;;;-1.55;92.22
65997;BME280;52765;52.258;21.052;2023-04-04T03:34:17;101446.72;;;-1.51;92.05
65997;BME280;52765;52.258;21.052;2023-04-04T03:36:43;101450.16;;;-1.49;91.93
65997;BME280;52765;52.258;21.052;2023-04-04T03:39:10;101443.38;;;-1.56;92.48
65997;BME280;52765;52.258;21.052;2023-04-04T03:41:36;101439.22;;;-1.65;93.04
65997;BME280;52765;52.258;21.052;2023-04-04T03:44:03;101438.34;;;-1.64;92.46
65997;BME280;52765;52.258;21.052;2023-04-04T03:46:28;101436.59;;;-1.65;92.79
65997;BME280;52765;52.258;21.052;2023-04-04T03:48:54;101441.63;;;-1.57;92.96
65997;BME280;52765;52.258;21.052;2023-04-04T03:51:24;101439.59;;;-1.49;92.05
65997;BME280;52765;52.258;21.052;2023-04-04T03:53:49;101447.66;;;-1.54;92.38
65997;BME280;52765;52.258;21.052;2023-04-04T03:56:15;101450.25;;;-1.52;92.00
65997;BME280;52765;52.258;21.052;2023-04-04T03:58:41;101447.00;;;-1.60;92.53
65997;BME280;52765;52.258;21.052;2023-04-04T04:01:06;101452.53;;;-1.66;93.51
65997;BME280;52765;52.258;21.052;2023-04-04T04:03:32;101458.16;;;-1.77;93.70
65997;BME280;52765;52.258;21.052;2023-04-04T04:05:58;101443.16;;;-1.77;93.95
65997;BME280;52765;52.258;21.052;2023-04-04T04:08:24;101449.16;;;-1.72;93.56
65997;BME280;52765;52.258;21.052;2023-04-04T04:10:49;101449.72;;;-1.62;93.71
65997;BME280;52765;52.258;21.052;2023-04-04T04:13:15;101454.75;;;-1.54;92.68
65997;BME280;52765;52.258;21.052;2023-04-04T04:15:41;101450.91;;;-1.45;92.00
65997;BME280;52765;52.258;21.052;2023-04-04T04:18:06;101446.47;;;-1.45;91.76
65997;BME280;52765;52.258;21.052;2023-04-04T04:20:32;101443.63;;;-1.39;92.03
65997;BME280;52765;52.258;21.052;2023-04-04T04:22:57;101448.00;;;-1.38;92.02
65997;BME280;52765;52.258;21.052;2023-04-04T04:25:23;101450.56;;;-1.35;91.78
65997;BME280;52765;52.258;21.052;2023-04-04T04:27:48;101446.97;;;-1.34;91.02
65997;BME280;52765;52.258;21.052;2023-04-04T04:30:13;101449.84;;;-1.40;92.16
65997;BME280;52765;52.258;21.052;2023-04-04T04:32:39;101431.44;;;-1.43;91.72
65997;BME280;52765;52.258;21.052;2023-04-04T04:35:07;101435.25;;;-1.52;91.77
65997;BME280;52765;52.258;21.052;2023-04-04T04:37:33;101446.72;;;-1.51;91.98
65997;BME280;52765;52.258;21.052;2023-04-04T04:39:58;101446.72;;;-1.51;92.12
65997;BME280;52765;52.258;21.052;2023-04-04T04:42:25;101442.38;;;-1.54;92.39
65997;BME280;52765;52.258;21.052;2023-04-04T04:44:51;101439.59;;;-1.49;92.54
65997;BME280;52765;52.258;21.052;2023-04-04T04:47:17;101442.72;;;-1.38;92.68
65997;BME280;52765;52.258;21.052;2023-04-04T04:49:42;101442.56;;;-1.33;92.25
65997;BME280;52765;52.258;21.052;2023-04-04T04:52:10;101442.28;;;-1.25;91.55
65997;BME280;52765;52.258;21.052;2023-04-04T04:54:37;101447.38;;;-1.19;90.93
65997;BME280;52765;52.258;21.052;2023-04-04T04:57:02;101444.22;;;-1.31;91.12
65997;BME280;52765;52.258;21.052;2023-04-04T04:59:27;101444.88;;;-1.24;91.21
65997;BME280;52765;52.258;21.052;2023-04-04T05:01:53;101444.56;;;-1.15;90.68
65997;BME280;52765;52.258;21.052;2023-04-04T05:04:19;101433.69;;;-1.07;89.45
65997;BME280;52765;52.258;21.052;2023-04-04T05:06:44;101431.69;;;-1.00;88.81
65997;BME280;52765;52.258;21.052;2023-04-04T05:09:13;101435.06;;;-0.97;88.82
65997;BME280;52765;52.258;21.052;2023-04-04T05:11:41;101429.09;;;-1.02;89.18
65997;BME280;52765;52.258;21.052;2023-04-04T05:14:07;101434.00;;;-1.15;89.89
65997;BME280;52765;52.258;21.052;2023-04-04T05:16:32;101427.59;;;-1.09;90.19
65997;BME280;52765;52.258;21.052;2023-04-04T05:18:58;101433.59;;;-1.04;89.68
65997;BME280;52765;52.258;21.052;2023-04-04T05:21:23;101431.94;;;-1.06;90.64
65997;BME280;52765;52.258;21.052;2023-04-04T05:23:52;101434.28;;;-0.99;89.12
65997;BME280;52765;52.258;21.052;2023-04-04T05:26:17;101435.78;;;-0.91;89.48
65997;BME280;52765;52.258;21.052;2023-04-04T05:28:43;101428.28;;;-0.80;88.42
65997;BME280;52765;52.258;21.052;2023-04-04T05:31:08;101440.16;;;-0.67;87.23
65997;BME280;52765;52.258;21.052;2023-04-04T05:33:34;101432.25;;;-0.68;87.10
65997;BME280;52765;52.258;21.052;2023-04-04T05:36:00;101441.59;;;-0.58;87.67
65997;BME280;52765;52.258;21.052;2023-04-04T05:38:25;101429.97;;;-0.54;86.65
65997;BME280;52765;52.258;21.052;2023-04-04T05:40:54;101437.97;;;-0.56;85.62
65997;BME280;52765;52.258;21.052;2023-04-04T05:43:20;101441.59;;;-0.58;87.00
65997;BME280;52765;52.258;21.052;2023-04-04T05:45:45;101435.13;;;-0.51;86.62
65997;BME280;52765;52.258;21.052;2023-04-04T05:48:11;101437.16;;;-0.58;85.23
65997;BME280;52765;52.258;21.052;2023-04-04T05:50:37;101436.94;;;-0.51;85.07
65997;BME280;52765;52.258;21.052;2023-04-04T05:53:02;101430.75;;;-0.52;85.31
65997;BME280;52765;52.258;21.052;2023-04-04T05:55:29;101437.16;;;-0.58;86.20
65997;BME280;52765;52.258;21.052;2023-04-04T05:57:54;101439.75;;;-0.56;86.11
65997;BME280;52765;52.258;21.052;2023-04-04T06:00:21;101445.63;;;-0.48;86.11
65997;BME280;52765;52.258;21.052;2023-04-04T06:02:47;101429.81;;;-0.27;85.59
65997;BME280;52765;52.258;21.052;2023-04-04T06:05:13;101429.00;;;-0.07;83.79
65997;BME280;52765;52.258;21.052;2023-04-04T06:07:38;101438.50;;;-0.02;83.26
65997;BME280;52765;52.258;21.052;2023-04-04T06:10:04;101437.25;;;0.07;84.01
65997;BME280;52765;52.258;21.052;2023-04-04T06:12:30;101438.47;;;0.21;82.23
65997;BME280;52765;52.258;21.052;2023-04-04T06:14:55;101431.44;;;0.20;82.41
65997;BME280;52765;52.258;21.052;2023-04-04T06:17:21;101431.63;;;0.37;82.47
65997;BME280;52765;52.258;21.052;2023-04-04T06:19:47;101423.25;;;0.46;79.98
65997;BME280;52765;52.258;21.052;2023-04-04T06:22:13;101430.63;;;0.60;79.88
65997;BME280;52765;52.258;21.052;2023-04-04T06:24:40;101429.25;;;0.72;77.71
65997;BME280;52765;52.258;21.052;2023-04-04T06:27:05;101425.59;;;0.54;78.40
65997;BME280;52765;52.258;21.052;2023-04-04T06:29:31;101425.72;;;0.51;78.82
65997;BME280;52765;52.258;21.052;2023-04-04T06:31:57;101425.91;;;0.46;78.29
65997;BME280;52765;52.258;21.052;2023-04-04T06:34:23;101427.44;;;0.52;78.98
65997;BME280;52765;52.258;21.052;2023-04-04T06:36:49;101415.56;;;0.61;77.86
65997;BME280;52765;52.258;21.052;2023-04-04T06:39:14;101418.63;;;0.72;77.76
65997;BME280;52765;52.258;21.052;2023-04-04T06:41:45;101423.38;;;0.84;76.60
65997;BME280;52765;52.258;21.052;2023-04-04T06:44:12;101420.41;;;0.92;75.75
65997;BME280;52765;52.258;21.052;2023-04-04T06:47:10;101388.69;;;0.89;75.77
65997;BME280;52765;52.258;21.052;2023-04-04T06:49:45;101414.38;;;1.07;73.77
65997;BME280;52765;52.258;21.052;2023-04-04T06:52:10;101411.59;;;1.10;72.95
65997;BME280;52765;52.258;21.052;2023-04-04T06:54:36;101419.28;;;1.17;74.28
65997;BME280;52765;52.258;21.052;2023-04-04T06:57:02;101408.88;;;1.12;72.44
65997;BME280;52765;52.258;21.052;2023-04-04T06:59:27;101411.97;;;1.22;72.19
65997;BME280;52765;52.258;21.052;2023-04-04T07:01:53;101410.34;;;1.38;70.50
65997;BME280;52765;52.258;21.052;2023-04-04T07:04:18;101414.97;;;1.52;69.68
65997;BME280;52765;52.258;21.052;2023-04-04T07:06:44;101410.66;;;1.69;69.72
65997;BME280;52765;52.258;21.052;2023-04-04T07:09:09;101407.59;;;1.95;68.45
65997;BME280;52765;52.258;21.052;2023-04-04T07:11:36;101403.84;;;1.99;67.01
65997;BME280;52765;52.258;21.052;2023-04-04T07:14:02;101409.13;;;1.82;67.27
65997;BME280;52765;52.258;21.052;2023-04-04T07:16:27;101402.13;;;1.98;65.76
65997;BME280;52765;52.258;21.052;2023-04-04T07:18:53;101400.97;;;2.04;65.90
65997;BME280;52765;52.258;21.052;2023-04-04T07:21:18;101409.97;;;2.19;64.02
65997;BME280;52765;52.258;21.052;2023-04-04T07:23:44;101410.31;;;2.30;63.29
65997;BME280;52765;52.258;21.052;2023-04-04T07:26:10;101405.13;;;2.45;62.59
65997;BME280;52765;52.258;21.052;2023-04-04T07:28:38;101407.47;;;2.51;61.77
65997;BME280;52765;52.258;21.052;2023-04-04T07:31:04;101404.03;;;2.49;61.29
65997;BME280;52765;52.258;21.052;2023-04-04T07:33:34;101406.00;;;2.45;62.17
65997;BME280;52765;52.258;21.052;2023-04-04T07:36:00;101397.16;;;2.62;59.95
65997;BME280;52765;52.258;21.052;2023-04-04T07:38:26;101404.97;;;2.65;60.23
65997;BME280;52765;52.258;21.052;2023-04-04T07:41:21;101400.97;;;2.74;59.02
65997;BME280;52765;52.258;21.052;2023-04-04T07:43:58;101395.50;;;2.93;60.84
65997;BME280;52765;52.258;21.052;2023-04-04T07:46:24;101388.25;;;3.12;58.48
65997;BME280;52765;52.258;21.052;2023-04-04T07:48:52;101391.88;;;3.27;59.33
65997;BME280;52765;52.258;21.052;2023-04-04T07:51:18;101374.28;;;3.41;58.07
65997;BME280;52765;52.258;21.052;2023-04-04T07:53:57;101392.56;;;3.63;56.62
65997;BME280;52765;52.258;21.052;2023-04-04T07:56:34;101381.50;;;3.86;55.42
65997;BME280;52765;52.258;21.052;2023-04-04T07:59:00;101376.97;;;4.03;54.24
65997;BME280;52765;52.258;21.052;2023-04-04T08:01:26;101377.09;;;4.16;52.94
65997;BME280;52765;52.258;21.052;2023-04-04T08:03:51;101375.53;;;4.28;51.10
65997;BME280;52765;52.258;21.052;2023-04-04T08:06:17;101366.50;;;4.44;50.90
65997;BME280;52765;52.258;21.052;2023-04-04T08:08:43;101370.94;;;4.74;50.29
65997;BME280;52765;52.258;21.052;2023-04-04T08:11:10;101374.47;;;4.89;50.29
65997;BME280;52765;52.258;21.052;2023-04-04T08:13:36;101360.38;;;5.02;48.70
65997;BME280;52765;52.258;21.052;2023-04-04T08:16:02;101364.47;;;5.07;48.81
65997;BME280;52765;52.258;21.052;2023-04-04T08:18:27;101366.47;;;4.89;48.83
65997;BME280;52765;52.258;21.052;2023-04-04T08:20:53;101365.63;;;5.03;47.68
65997;BME280;52765;52.258;21.052;2023-04-04T08:23:18;101365.81;;;5.00;47.75
65997;BME280;52765;52.258;21.052;2023-04-04T08:25:45;101368.00;;;4.79;47.66
65997;BME280;52765;52.258;21.052;2023-04-04T08:28:11;101363.03;;;4.87;47.16
65997;BME280;52765;52.258;21.052;2023-04-04T08:30:38;101357.31;;;4.79;47.34
65997;BME280;52765;52.258;21.052;2023-04-04T08:33:03;101355.84;;;4.44;47.90
65997;BME280;52765;52.258;21.052;2023-04-04T08:35:29;101352.97;;;4.33;47.95
65997;BME280;52765;52.258;21.052;2023-04-04T08:37:54;101349.69;;;4.14;48.46
65997;BME280;52765;52.258;21.052;2023-04-04T08:40:21;101355.13;;;3.96;48.89
65997;BME280;52765;52.258;21.052;2023-04-04T08:43:35;101352.06;;;3.88;49.40
65997;BME280;52765;52.258;21.052;2023-04-04T08:45:57;101347.69;;;3.71;50.00
65997;BME280;52765;52.258;21.052;2023-04-04T08:48:30;101344.84;;;3.90;49.97
65997;BME280;52765;52.258;21.052;2023-04-04T08:50:58;101346.16;;;4.13;49.07
65997;BME280;52765;52.258;21.052;2023-04-04T08:53:24;101348.69;;;4.59;47.01
65997;BME280;52765;52.258;21.052;2023-04-04T08:55:53;101347.88;;;4.73;47.45
65997;BME280;52765;52.258;21.052;2023-04-04T08:58:19;101338.50;;;4.66;48.30
65997;BME280;52765;52.258;21.052;2023-04-04T09:00:44;101346.88;;;4.45;48.94
65997;BME280;52765;52.258;21.052;2023-04-04T09:03:19;101349.50;;;4.17;49.30
65997;BME280;52765;52.258;21.052;2023-04-04T09:05:46;101350.19;;;3.90;47.91
65997;BME280;52765;52.258;21.052;2023-04-04T09:08:12;101343.03;;;3.91;48.05
65997;BME280;52765;52.258;21.052;2023-04-04T09:10:39;101344.75;;;3.92;48.24
65997;BME280;52765;52.258;21.052;2023-04-04T09:13:11;101353.03;;;4.17;47.98
65997;BME280;52765;52.258;21.052;2023-04-04T09:15:37;101343.78;;;4.23;48.56
65997;BME280;52765;52.258;21.052;2023-04-04T09:18:05;101348.00;;;4.27;47.38
65997;BME280;52765;52.258;21.052;2023-04-04T09:20:41;101338.44;;;4.08;47.10
65997;BME280;52765;52.258;21.052;2023-04-04T09:23:21;101339.00;;;4.14;47.01
65997;BME280;52765;52.258;21.052;2023-04-04T09:25:52;101338.91;;;4.15;46.67
65997;BME280;52765;52.258;21.052;2023-04-04T09:28:18;101346.44;;;4.23;45.49
65997;BME280;52765;52.258;21.052;2023-04-04T09:30:49;101338.00;;;4.31;45.37
65997;BME280;52765;52.258;21.052;2023-04-04T09:33:19;101330.25;;;4.26;46.04
65997;BME280;52765;52.258;21.052;2023-04-04T09:35:51;101344.50;;;4.41;45.62
65997;BME280;52765;52.258;21.052;2023-04-04T09:38:21;101335.00;;;4.06;46.03
65997;BME280;52765;52.258;21.052;2023-04-04T09:40:47;101352.59;;;4.09;45.80
65997;BME280;52765;52.258;21.052;2023-04-04T09:43:13;101355.03;;;3.98;45.52
65997;BME280;52765;52.258;21.052;2023-04-04T09:45:42;101347.38;;;4.07;44.65
65997;BME280;52765;52.258;21.052;2023-04-04T09:48:09;101353.03;;;3.71;46.94
65997;BME280;52765;52.258;21.052;2023-04-04T09:50:36;101334.66;;;3.34;47.05
65997;BME280;52765;52.258;21.052;2023-04-04T09:53:01;101349.19;;;3.29;46.85
65997;BME280;52765;52.258;21.052;2023-04-04T09:55:32;101355.38;;;3.29;47.53
65997;BME280;52765;52.258;21.052;2023-04-04T09:57:58;101342.66;;;3.34;47.37
65997;BME280;52765;52.258;21.052;2023-04-04T10:00:28;101356.94;;;3.33;46.86
65997;BME280;52765;52.258;21.052;2023-04-04T10:03:03;101350.84;;;3.31;46.05
65997;BME280;52765;52.258;21.052;2023-04-04T10:05:30;101342.16;;;3.12;47.13
65997;BME280;52765;52.258;21.052;2023-04-04T10:07:56;101360.00;;;3.10;48.35
65997;BME280;52765;52.258;21.052;2023-04-04T10:10:22;101355.53;;;3.26;48.07
65997;BME280;52765;52.258;21.052;2023-04-04T10:12:51;101348.84;;;3.51;45.63
65997;BME280;52765;52.258;21.052;2023-04-04T10:15:16;101347.78;;;3.85;45.23
65997;BME280;52765;52.258;21.052;2023-04-04T10:17:43;101354.00;;;4.00;44.92
65997;BME280;52765;52.258;21.052;2023-04-04T10:20:10;101344.94;;;4.19;44.40
65997;BME280;52765;52.258;21.052;2023-04-04T10:22:37;101339.84;;;4.14;45.07
65997;BME280;52765;52.258;21.052;2023-04-04T10:25:06;101340.66;;;4.31;46.23
65997;BME280;52765;52.258;21.052;2023-04-04T10:27:33;101342.78;;;4.40;45.20
65997;BME280;52765;52.258;21.052;2023-04-04T10:30:02;101344.56;;;4.25;46.82
65997;BME280;52765;52.258;21.052;2023-04-04T10:32:43;101350.50;;;4.44;47.31
65997;BME280;52765;52.258;21.052;2023-04-04T10:35:13;101340.22;;;4.53;46.62
65997;BME280;52765;52.258;21.052;2023-04-04T10:37:44;101351.19;;;4.62;45.69
65997;BME280;52765;52.258;21.052;2023-04-04T10:40:18;101347.75;;;4.60;46.39
65997;BME280;52765;52.258;21.052;2023-04-04T10:42:45;101330.13;;;4.72;45.67
65997;BME280;52765;52.258;21.052;2023-04-04T10:45:15;101330.00;;;5.17;45.24
65997;BME280;52765;52.258;21.052;2023-04-04T10:47:41;101325.47;;;5.46;44.20
65997;BME280;52765;52.258;21.052;2023-04-04T10:50:08;101318.50;;;5.44;44.37
65997;BME280;52765;52.258;21.052;2023-04-04T10:52:41;101323.53;;;5.07;44.33
65997;BME280;52765;52.258;21.052;2023-04-04T10:55:10;101323.84;;;4.73;45.02
65997;BME280;52765;52.258;21.052;2023-04-04T10:57:40;101317.75;;;4.57;45.90
65997;BME280;52765;52.258;21.052;2023-04-04T11:00:24;101322.13;;;4.43;46.26
65997;BME280;52765;52.258;21.052;2023-04-04T11:02:59;101318.00;;;4.38;46.03
65997;BME280;52765;52.258;21.052;2023-04-04T11:08:23;101330.13;;;4.72;44.69
65997;BME280;52765;52.258;21.052;2023-04-04T11:10:52;101329.56;;;4.67;44.29
65997;BME280;52765;52.258;21.052;2023-04-04T11:13:31;101326.03;;;4.67;44.76
65997;BME280;52765;52.258;21.052;2023-04-04T11:16:12;101321.06;;;4.46;44.72
65997;BME280;52765;52.258;21.052;2023-04-04T11:21:13;101316.00;;;4.27;45.88
65997;BME280;52765;52.258;21.052;2023-04-04T11:26:36;101315.63;;;4.03;46.71
65997;BME280;52765;52.258;21.052;2023-04-04T11:29:04;101321.56;;;4.08;46.88
65997;BME280;52765;52.258;21.052;2023-04-04T11:31:41;101316.28;;;3.92;47.82
65997;BME280;52765;52.258;21.052;2023-04-04T11:34:08;101326.00;;;3.93;48.78
65997;BME280;52765;52.258;21.052;2023-04-04T11:39:29;101311.88;;;3.91;49.20
65997;BME280;52765;52.258;21.052;2023-04-04T11:42:11;101316.91;;;4.12;49.57
65997;BME280;52765;52.258;21.052;2023-04-04T11:47:37;101316.38;;;3.91;48.55
65997;BME280;52765;52.258;21.052;2023-04-04T11:50:15;101306.16;;;3.83;48.27
65997;BME280;52765;52.258;21.052;2023-04-04T11:52:41;101316.19;;;3.94;48.77
65997;BME280;52765;52.258;21.052;2023-04-04T11:55:22;101309.22;;;4.21;47.38
65997;BME280;52765;52.258;21.052;2023-04-04T11:57:48;101306.75;;;4.18;46.08
65997;BME280;52765;52.258;21.052;2023-04-04T12:00:32;101309.38;;;4.04;46.18
65997;BME280;52765;52.258;21.052;2023-04-04T12:03:00;101309.88;;;3.80;47.58
65997;BME280;52765;52.258;21.052;2023-04-04T12:05:26;101308.94;;;3.65;48.09
65997;BME280;52765;52.258;21.052;2023-04-04T12:07:53;101304.72;;;3.61;48.94
65997;BME280;52765;52.258;21.052;2023-04-04T12:10:25;101298.13;;;3.52;49.99
65997;BME280;52765;52.258;21.052;2023-04-04T12:12:54;101311.28;;;3.56;51.14
65997;BME280;52765;52.258;21.052;2023-04-04T12:15:21;101304.00;;;3.27;53.56
65997;BME280;52765;52.258;21.052;2023-04-04T12:17:48;101299.38;;;3.15;53.33
65997;BME280;52765;52.258;21.052;2023-04-04T12:20:16;101305.38;;;3.19;53.44
65997;BME280;52765;52.258;21.052;2023-04-04T12:22:41;101303.84;;;3.30;53.25
65997;BME280;52765;52.258;21.052;2023-04-04T12:25:08;101315.50;;;3.28;53.46
65997;BME280;52765;52.258;21.052;2023-04-04T12:27:35;101327.53;;;3.03;55.21
65997;BME280;52765;52.258;21.052;2023-04-04T12:30:01;101315.13;;;2.86;55.39
65997;BME280;52765;52.258;21.052;2023-04-04T12:32:28;101321.06;;;2.91;55.55
65997;BME280;52765;52.258;21.052;2023-04-04T12:34:59;101320.97;;;2.93;55.24
65997;BME280;52765;52.258;21.052;2023-04-04T12:37:27;101311.22;;;2.93;55.46
65997;BME280;52765;52.258;21.052;2023-04-04T12:39:55;101322.88;;;2.57;55.81
65997;BME280;52765;52.258;21.052;2023-04-04T12:42:26;101309.94;;;2.34;56.74
65997;BME280;52765;52.258;21.052;2023-04-04T12:44:55;101310.72;;;2.36;56.63
65997;BME280;52765;52.258;21.052;2023-04-04T12:47:21;101304.13;;;2.43;56.50
65997;BME280;52765;52.258;21.052;2023-04-04T12:49:53;101305.25;;;2.39;56.35
65997;BME280;52765;52.258;21.052;2023-04-04T12:52:26;101299.25;;;2.35;56.84
65997;BME280;52765;52.258;21.052;2023-04-04T12:54:57;101295.59;;;2.54;55.86
65997;BME280;52765;52.258;21.052;2023-04-04T12:57:24;101292.78;;;2.57;55.19
65997;BME280;52765;52.258;21.052;2023-04-04T12:59:54;101291.09;;;2.72;54.54
65997;BME280;52765;52.258;21.052;2023-04-04T13:02:21;101302.09;;;2.82;54.44
65997;BME280;52765;52.258;21.052;2023-04-04T13:04:53;101295.66;;;2.86;53.48